KBHC

Details ICAO KBHC
Name BAXLEY MUNI
Region United States
Timezone America/New_York (UTC-5.0)
Plans Departing 0
Arriving 0
Stats Elevation 201 ft / 61 m (AMSL)
Location 31.713842° -82.393786°
Runways 1
Magnetic Variation 6.186° W
Sunrise 2017-12-11 12:20:54 UTC / 2017-12-11 07:20:54 Local
Sunset 2017-12-11 22:27:52 UTC / 2017-12-11 17:27:52 Local
Advertisement - Login to hide

Runways

ID Width Length Bearing (true) Bearing (mag) Surface Threshold Offset Overrun Length
08 75 ft / 23 m 4,997 ft / 1,523 m 74.80° 80.99° Asphalt 0 ft / 0 m 0 ft / 0 m
26 75 ft / 23 m 4,997 ft / 1,523 m 254.81° 261.00° Asphalt 0 ft / 0 m 0 ft / 0 m

Map

Weather


0- 5 10 15 20 25 30 35+ Temperature / ° C

Clouds and Precipitation
Forecast for 2017-12-11 06:00 UTC. Updated 26 minutes ago

Ground ~20,000 ft ~40,000 ft Winds

METAR

KBHC 110535Z AUTO 00000KT 10SM CLR 00/00 A3027 RMK AO2

TAF

Not found

Frequencies

Unicom 122.80 MHz CTAF/UNICOM
Warning: Do not use this data for real-world aviation or navigation. No guarantee of current accuracy is given.